createdAt,value
2019-06-26T00:00:45.297Z,99.90
2019-06-26T00:05:46.650Z,99.90
2019-06-26T00:10:49.039Z,99.90
2019-06-26T00:15:51.578Z,99.90
2019-06-26T00:20:56.417Z,99.90
2019-06-26T00:25:57.827Z,99.90
2019-06-26T00:30:59.139Z,99.90
2019-06-26T00:36:00.610Z,99.90
2019-06-26T00:41:03.715Z,99.90
2019-06-26T00:46:05.285Z,99.90
2019-06-26T00:51:06.803Z,99.90
2019-06-26T00:56:08.140Z,99.90
2019-06-26T01:01:09.537Z,99.90
2019-06-26T01:06:13.173Z,99.90
2019-06-26T01:11:21.737Z,99.90
2019-06-26T01:16:24.649Z,99.90
2019-06-26T01:21:30.146Z,99.90
2019-06-26T01:26:31.568Z,99.90
2019-06-26T01:31:34.943Z,99.90
2019-06-26T01:36:38.186Z,99.90
2019-06-26T01:41:41.138Z,99.90
2019-06-26T01:46:42.890Z,99.90
2019-06-26T01:51:44.233Z,99.90
2019-06-26T01:56:46.521Z,99.90
2019-06-26T02:01:49.802Z,99.90
2019-06-26T02:06:51.079Z,99.90
2019-06-26T02:11:54.667Z,99.90
2019-06-26T02:16:56.110Z,99.90
2019-06-26T02:21:58.124Z,99.90
2019-06-26T02:27:01.709Z,99.90
2019-06-26T02:32:04.146Z,99.90
2019-06-26T02:37:05.413Z,99.90
2019-06-26T02:42:07.526Z,99.90
2019-06-26T02:47:19.640Z,99.90
2019-06-26T02:52:14.115Z,99.90
2019-06-26T02:57:21.199Z,99.90
2019-06-26T03:02:29.508Z,99.90
2019-06-26T03:07:33.465Z,99.90
2019-06-26T03:12:34.852Z,99.90
2019-06-26T03:17:54.059Z,99.90
2019-06-26T03:22:42.929Z,99.90
2019-06-26T03:27:44.229Z,99.90
2019-06-26T03:32:48.304Z,99.90
2019-06-26T03:37:49.605Z,99.90
2019-06-26T03:42:52.680Z,99.90
2019-06-26T03:47:54.373Z,99.90
2019-06-26T03:52:57.460Z,99.90
2019-06-26T03:58:01.260Z,99.90
2019-06-26T04:03:03.265Z,99.90
2019-06-26T04:08:04.742Z,99.90
2019-06-26T04:13:06.137Z,99.90
2019-06-26T04:18:07.434Z,99.90
2019-06-26T04:23:08.693Z,99.90
2019-06-26T04:28:11.871Z,99.90
2019-06-26T04:33:13.670Z,99.90
2019-06-26T04:38:14.954Z,99.90
2019-06-26T04:43:16.208Z,99.90
2019-06-26T04:48:26.505Z,99.90
2019-06-26T04:53:29.402Z,99.90
2019-06-26T04:58:30.701Z,99.90
2019-06-26T05:03:31.967Z,99.90
2019-06-26T05:08:33.202Z,99.90
2019-06-26T05:13:36.405Z,99.90
2019-06-26T05:18:37.659Z,99.90
2019-06-26T05:23:39.740Z,99.90
2019-06-26T05:28:41.124Z,99.90
2019-06-26T05:33:42.480Z,99.90
2019-06-26T05:38:43.774Z,99.90
2019-06-26T05:43:45.035Z,99.90
2019-06-26T05:48:46.310Z,99.90
2019-06-26T05:53:48.238Z,99.90
2019-06-26T05:58:49.558Z,99.90
2019-06-26T06:03:50.857Z,99.90
2019-06-26T06:08:52.362Z,99.90
2019-06-26T06:13:55.761Z,99.90
2019-06-26T06:18:57.061Z,99.90
2019-06-26T06:23:58.845Z,99.90
2019-06-26T06:29:01.353Z,99.90
2019-06-26T06:34:02.818Z,99.90
2019-06-26T06:39:05.309Z,99.90
2019-06-26T06:44:06.554Z,99.90
2019-06-26T06:49:07.831Z,99.90
2019-06-26T06:54:09.118Z,99.90
2019-06-26T06:59:10.606Z,99.90
2019-06-26T07:04:11.873Z,99.90
2019-06-26T07:09:13.498Z,99.90
2019-06-26T07:14:14.756Z,99.90
2019-06-26T07:19:16.179Z,99.90
2019-06-26T07:24:17.479Z,99.90
2019-06-26T07:29:18.984Z,99.90
2019-06-26T07:34:20.331Z,99.90
2019-06-26T07:39:21.674Z,99.90
2019-06-26T07:44:22.907Z,99.90
2019-06-26T07:49:24.204Z,99.90
2019-06-26T07:54:25.580Z,99.90
2019-06-26T07:59:27.170Z,99.90
2019-06-26T08:04:28.460Z,99.90
2019-06-26T08:09:29.786Z,99.90
2019-06-26T08:14:31.280Z,99.90
2019-06-26T08:19:32.714Z,99.90
2019-06-26T08:24:33.998Z,99.90
2019-06-26T08:29:37.392Z,99.90
2019-06-26T08:34:38.641Z,99.90
2019-06-26T08:39:40.133Z,99.80
2019-06-26T08:44:41.558Z,99.30
2019-06-26T08:49:42.860Z,99.30
2019-06-26T08:54:44.335Z,98.80
2019-06-26T08:59:45.675Z,98.70
2019-06-26T09:04:46.928Z,98.50
2019-06-26T09:10:06.962Z,98.60
2019-06-26T09:15:09.491Z,98.50
2019-06-26T09:20:11.065Z,98.40
2019-06-26T09:25:21.589Z,98.60
2019-06-26T09:30:17.229Z,98.50
2019-06-26T09:35:18.496Z,98.20
2019-06-26T09:40:20.062Z,97.90
2019-06-26T09:45:21.821Z,97.90
2019-06-26T09:50:23.078Z,97.60
2019-06-26T09:55:24.415Z,97.50
2019-06-26T10:00:26.373Z,97.20
2019-06-26T10:05:27.650Z,97.20
2019-06-26T10:10:28.941Z,97.20
2019-06-26T10:15:30.294Z,97.30
2019-06-26T10:20:31.584Z,97.20
2019-06-26T10:25:32.876Z,97.10
2019-06-26T10:30:35.400Z,97.00
2019-06-26T10:35:36.663Z,97.20
2019-06-26T10:40:38.072Z,97.10
2019-06-26T10:45:39.383Z,96.80
2019-06-26T10:50:49.770Z,96.90
2019-06-26T10:55:46.372Z,96.90
2019-06-26T11:00:48.222Z,96.80
2019-06-26T11:05:49.868Z,96.70
2019-06-26T11:10:51.222Z,96.40
2019-06-26T11:15:52.577Z,96.50
2019-06-26T11:20:53.867Z,96.30
2019-06-26T11:25:55.561Z,96.40
2019-06-26T11:30:56.838Z,96.50
2019-06-26T11:35:58.147Z,96.30
2019-06-26T11:41:01.803Z,96.30
2019-06-26T11:46:03.233Z,96.20
2019-06-26T11:51:05.806Z,96.00
2019-06-26T11:56:08.016Z,95.80
2019-06-26T12:01:11.440Z,95.90
2019-06-26T12:06:18.857Z,95.90
2019-06-26T12:11:16.329Z,95.50
2019-06-26T12:16:36.098Z,95.40
2019-06-26T12:21:37.419Z,94.90
2019-06-26T12:26:38.698Z,94.00
2019-06-26T12:31:40.001Z,93.50
2019-06-26T12:36:41.330Z,93.00
2019-06-26T12:41:42.601Z,92.40
2019-06-26T12:46:43.959Z,92.00
2019-06-26T12:51:45.252Z,91.90
2019-06-26T12:56:46.655Z,91.10
2019-06-26T13:01:47.970Z,90.80
2019-06-26T13:06:49.726Z,90.90
2019-06-26T13:11:51.647Z,91.00
2019-06-26T13:16:52.939Z,91.10
2019-06-26T13:21:54.272Z,91.30
2019-06-26T13:26:55.728Z,91.50
2019-06-26T13:31:57.075Z,91.90
2019-06-26T13:36:58.377Z,92.70
2019-06-26T13:41:59.901Z,93.70
2019-06-26T13:47:01.239Z,94.10
2019-06-26T13:52:04.147Z,94.50
2019-06-26T13:57:05.423Z,95.20
2019-06-26T14:02:07.004Z,95.30
2019-06-26T14:07:08.708Z,95.60
2019-06-26T14:12:10.360Z,96.10
2019-06-26T14:17:11.621Z,96.40
2019-06-26T14:22:13.221Z,96.50
2019-06-26T14:27:14.745Z,96.90
2019-06-26T14:32:15.991Z,97.30
2019-06-26T14:37:17.245Z,97.60
2019-06-26T14:42:18.877Z,97.50
2019-06-26T14:47:20.573Z,97.30
2019-06-26T14:52:21.930Z,97.40
2019-06-26T14:57:25.982Z,97.30
2019-06-26T15:02:26.995Z,97.20
2019-06-26T15:07:29.546Z,97.10
2019-06-26T15:12:33.981Z,96.80
2019-06-26T15:17:35.467Z,96.60
2019-06-26T15:22:36.829Z,96.30
2019-06-26T15:27:38.206Z,96.00
2019-06-26T15:32:39.492Z,95.60
2019-06-26T15:37:40.739Z,95.60
2019-06-26T15:42:43.983Z,95.10
2019-06-26T15:47:45.367Z,94.30
2019-06-26T15:52:46.770Z,93.80
2019-06-26T15:57:48.233Z,93.80
2019-06-26T16:02:52.550Z,93.10
2019-06-26T16:07:53.806Z,93.20
2019-06-26T16:12:55.052Z,93.00
2019-06-26T16:17:58.646Z,92.60
2019-06-26T16:23:00.304Z,92.50
2019-06-26T16:28:05.660Z,92.20
2019-06-26T16:33:07.083Z,92.10
2019-06-26T16:38:09.672Z,91.80
2019-06-26T16:43:11.268Z,92.00
2019-06-26T16:48:15.757Z,92.10
2019-06-26T16:53:17.116Z,92.40
2019-06-26T16:58:18.471Z,92.10
2019-06-26T17:03:21.528Z,91.50
2019-06-26T17:08:23.857Z,91.40
2019-06-26T17:13:29.291Z,91.40
2019-06-26T17:18:33.647Z,91.20
2019-06-26T17:23:39.971Z,91.20
2019-06-26T17:28:41.242Z,91.10
2019-06-26T17:33:42.540Z,90.70
2019-06-26T17:38:44.090Z,90.60
2019-06-26T17:43:45.401Z,91.20
2019-06-26T17:48:51.361Z,92.10
2019-06-26T17:53:51.409Z,92.50
2019-06-26T17:58:54.757Z,93.00
2019-06-26T18:03:56.265Z,93.30
2019-06-26T18:09:11.232Z,93.70
2019-06-26T18:14:03.309Z,94.10
2019-06-26T18:19:05.085Z,94.30
2019-06-26T18:24:06.962Z,94.50
2019-06-26T18:29:11.967Z,94.20
2019-06-26T18:34:18.671Z,94.60
2019-06-26T18:39:19.958Z,94.80
2019-06-26T18:44:21.260Z,95.00
2019-06-26T18:49:23.634Z,95.40
2019-06-26T18:54:25.049Z,95.60
2019-06-26T18:59:28.267Z,95.40
2019-06-26T19:04:30.837Z,94.80
2019-06-26T19:09:34.462Z,95.10
2019-06-26T19:14:37.832Z,95.50
2019-06-26T19:19:39.268Z,95.80
2019-06-26T19:24:40.610Z,96.30
2019-06-26T19:29:45.693Z,97.10
2019-06-26T19:34:47.074Z,97.20
2019-06-26T19:39:48.344Z,97.90
2019-06-26T19:44:49.841Z,98.20
2019-06-26T19:49:51.977Z,98.50
2019-06-26T19:54:53.251Z,98.70
2019-06-26T19:59:54.882Z,99.10
2019-06-26T20:04:56.235Z,99.30
2019-06-26T20:10:01.616Z,99.70
2019-06-26T20:20:32.869Z,99.90
2019-06-26T20:25:35.049Z,99.90
2019-06-26T20:30:36.365Z,99.90
2019-06-26T20:35:42.731Z,99.90
2019-06-26T20:40:41.614Z,99.90
2019-06-26T20:45:43.003Z,99.90
2019-06-26T20:50:46.308Z,99.90
2019-06-26T20:55:47.610Z,99.90
2019-06-26T21:00:48.905Z,99.90
2019-06-26T21:05:50.219Z,99.90
2019-06-26T21:10:51.614Z,99.90
2019-06-26T21:15:53.203Z,99.90
2019-06-26T21:20:54.920Z,99.90
2019-06-26T21:25:56.313Z,99.90
2019-06-26T21:30:59.097Z,99.90
2019-06-26T21:36:00.491Z,99.90
2019-06-26T21:41:01.813Z,99.90
2019-06-26T21:46:03.074Z,99.90
2019-06-26T21:51:12.189Z,99.90
2019-06-26T21:56:14.020Z,99.90
2019-06-26T22:01:15.814Z,99.90
2019-06-26T22:06:17.400Z,99.90
2019-06-26T22:11:18.799Z,99.90
2019-06-26T22:16:20.190Z,99.90
2019-06-26T22:21:21.560Z,99.90
2019-06-26T22:26:25.355Z,99.90
2019-06-26T22:31:28.276Z,99.90
2019-06-26T22:36:29.819Z,99.90
2019-06-26T22:41:31.217Z,99.90
2019-06-26T22:46:32.559Z,99.90
2019-06-26T22:51:33.852Z,99.90
2019-06-26T22:56:35.252Z,99.90
2019-06-26T23:01:36.603Z,99.90
2019-06-26T23:06:59.903Z,99.90
2019-06-26T23:12:01.349Z,99.90
2019-06-26T23:17:02.714Z,99.90
2019-06-26T23:22:05.870Z,99.90
2019-06-26T23:27:08.135Z,99.90
2019-06-26T23:32:13.580Z,99.90
2019-06-26T23:37:15.017Z,99.90
2019-06-26T23:42:16.353Z,99.90
2019-06-26T23:47:17.644Z,99.90
2019-06-26T23:52:19.134Z,99.90
2019-06-26T23:57:20.815Z,99.90
